createdAt,value
2023-03-08T00:01:22.304Z,11.30
2023-03-08T00:03:52.918Z,11.43
2023-03-08T00:06:19.656Z,10.25
2023-03-08T00:08:48.338Z,11.32
2023-03-08T00:11:15.822Z,10.20
2023-03-08T00:13:42.226Z,10.20
2023-03-08T00:16:12.455Z,10.88
2023-03-08T00:21:08.293Z,11.63
2023-03-08T00:23:34.681Z,10.70
2023-03-08T00:26:01.198Z,11.05
2023-03-08T00:28:28.376Z,10.70
2023-03-08T00:30:56.892Z,10.63
2023-03-08T00:33:24.432Z,10.40
2023-03-08T00:35:59.479Z,10.55
2023-03-08T00:38:27.165Z,10.40
2023-03-08T00:40:54.317Z,10.68
2023-03-08T00:43:21.069Z,9.82
2023-03-08T00:45:48.785Z,11.15
2023-03-08T00:48:18.245Z,10.07
2023-03-08T00:50:44.828Z,9.95
2023-03-08T00:53:11.528Z,10.07
2023-03-08T00:55:38.098Z,9.50
2023-03-08T00:58:05.353Z,10.32
2023-03-08T01:00:31.823Z,10.65
2023-03-08T01:02:58.431Z,10.43
2023-03-08T01:05:24.889Z,10.38
2023-03-08T01:07:51.292Z,10.50
2023-03-08T01:10:17.782Z,10.82
2023-03-08T01:12:44.731Z,10.38
2023-03-08T01:15:11.332Z,10.93
2023-03-08T01:17:37.774Z,11.23
2023-03-08T01:20:05.045Z,11.90
2023-03-08T01:22:31.740Z,11.45
2023-03-08T01:24:58.114Z,11.20
2023-03-08T01:27:24.671Z,11.80
2023-03-08T01:29:51.106Z,11.25
2023-03-08T01:32:17.491Z,11.55
2023-03-08T01:34:43.929Z,11.38
2023-03-08T01:37:10.355Z,11.02
2023-03-08T01:39:36.710Z,11.63
2023-03-08T01:42:07.328Z,11.60
2023-03-08T01:44:57.243Z,12.27
2023-03-08T01:47:26.170Z,11.27
2023-03-08T01:49:55.010Z,12.10
2023-03-08T01:52:33.476Z,11.32
2023-03-08T01:55:03.472Z,12.60
2023-03-08T01:57:40.274Z,12.10
2023-03-08T02:00:09.873Z,12.63
2023-03-08T02:02:43.350Z,13.05
2023-03-08T02:05:11.151Z,12.52
2023-03-08T02:07:37.734Z,13.38
2023-03-08T02:10:04.378Z,13.80
2023-03-08T02:12:31.269Z,12.93
2023-03-08T02:14:58.418Z,15.00
2023-03-08T02:17:25.654Z,14.00
2023-03-08T02:19:57.550Z,15.32
2023-03-08T02:22:24.102Z,15.13
2023-03-08T02:24:50.678Z,15.30
2023-03-08T02:27:24.053Z,16.50
2023-03-08T02:29:50.512Z,15.23
2023-03-08T02:32:17.237Z,15.13
2023-03-08T02:34:43.863Z,15.98
2023-03-08T02:37:10.323Z,16.38
2023-03-08T02:39:37.519Z,15.20
2023-03-08T02:42:04.097Z,15.48
2023-03-08T02:44:30.456Z,16.15
2023-03-08T02:46:56.842Z,17.15
2023-03-08T02:49:23.249Z,16.55
2023-03-08T02:51:49.627Z,18.30
2023-03-08T02:54:17.017Z,18.15
2023-03-08T02:56:43.581Z,17.15
2023-03-08T02:59:10.097Z,18.13
2023-03-08T03:01:37.238Z,18.52
2023-03-08T03:04:03.999Z,20.35
2023-03-08T03:06:30.505Z,19.15
2023-03-08T03:08:56.887Z,18.80
2023-03-08T03:11:23.573Z,17.73
2023-03-08T03:13:58.254Z,16.27
2023-03-08T03:16:26.008Z,15.90
2023-03-08T03:18:54.139Z,16.35
2023-03-08T03:21:20.883Z,16.55
2023-03-08T03:23:47.573Z,17.65
2023-03-08T03:26:20.192Z,16.63
2023-03-08T03:28:46.564Z,16.25
2023-03-08T03:31:19.817Z,15.18
2023-03-08T03:33:46.856Z,15.23
2023-03-08T03:36:15.762Z,15.48
2023-03-08T03:38:42.163Z,14.85
2023-03-08T03:41:12.023Z,14.88
2023-03-08T03:43:39.044Z,14.95
2023-03-08T03:46:08.661Z,14.27
2023-03-08T03:48:36.066Z,14.43
2023-03-08T03:51:03.709Z,14.95
2023-03-08T03:53:31.457Z,15.27
2023-03-08T03:56:05.339Z,15.65
2023-03-08T03:58:31.853Z,17.15
2023-03-08T04:00:58.256Z,18.48
2023-03-08T04:03:25.114Z,17.38
2023-03-08T04:05:51.532Z,18.10
2023-03-08T04:08:18.025Z,17.65
2023-03-08T04:10:44.423Z,18.60
2023-03-08T04:13:12.221Z,18.20
2023-03-08T04:15:38.615Z,17.55
2023-03-08T04:18:05.024Z,16.63
2023-03-08T04:20:31.364Z,16.63
2023-03-08T04:22:58.002Z,17.85
2023-03-08T04:25:24.344Z,17.67
2023-03-08T04:27:50.725Z,21.17
2023-03-08T04:30:17.264Z,18.58
2023-03-08T04:32:43.771Z,19.60
2023-03-08T04:35:10.454Z,18.13
2023-03-08T04:37:37.166Z,18.75
2023-03-08T04:40:07.043Z,17.83
2023-03-08T04:42:33.693Z,18.65
2023-03-08T04:45:00.060Z,16.45
2023-03-08T04:47:26.427Z,16.27
2023-03-08T04:49:52.788Z,15.23
2023-03-08T04:52:19.214Z,14.90
2023-03-08T04:54:45.583Z,14.82
2023-03-08T04:57:12.258Z,14.93
2023-03-08T04:59:38.687Z,19.83
2023-03-08T05:02:05.138Z,18.73
2023-03-08T05:04:31.580Z,18.55
2023-03-08T05:06:57.955Z,19.88
2023-03-08T05:09:24.363Z,19.55
2023-03-08T05:11:50.958Z,22.63
2023-03-08T05:14:17.396Z,22.27
2023-03-08T05:16:43.762Z,20.83
2023-03-08T05:19:10.769Z,16.83
2023-03-08T05:21:37.118Z,15.02
2023-03-08T05:24:03.553Z,14.55
2023-03-08T05:26:29.975Z,13.75
2023-03-08T05:28:56.682Z,13.05
2023-03-08T05:31:23.184Z,12.52
2023-03-08T05:33:51.662Z,13.48
2023-03-08T05:36:18.592Z,12.88
2023-03-08T05:38:45.301Z,12.60
2023-03-08T05:41:13.854Z,13.23
2023-03-08T05:43:40.412Z,12.63
2023-03-08T05:46:10.898Z,13.52
2023-03-08T05:48:37.639Z,13.77
2023-03-08T05:51:12.280Z,12.82
2023-03-08T05:53:39.231Z,13.25
2023-03-08T05:56:09.757Z,14.23
2023-03-08T05:58:36.645Z,15.20
2023-03-08T06:01:20.742Z,15.27
2023-03-08T06:03:49.812Z,15.05
2023-03-08T06:06:16.842Z,16.85
2023-03-08T06:08:43.568Z,15.65
2023-03-08T06:11:10.784Z,15.95
2023-03-08T06:13:37.405Z,16.65
2023-03-08T06:16:04.709Z,16.38
2023-03-08T06:18:31.817Z,16.83
2023-03-08T06:21:04.020Z,19.25
2023-03-08T06:23:31.532Z,18.23
2023-03-08T06:25:58.788Z,18.17
2023-03-08T06:28:26.195Z,18.52
2023-03-08T06:30:53.002Z,18.88
2023-03-08T06:33:21.699Z,18.77
2023-03-08T06:35:59.658Z,18.77
2023-03-08T06:38:29.572Z,17.80
2023-03-08T06:40:57.238Z,20.38
2023-03-08T06:43:23.749Z,20.98
2023-03-08T06:45:50.234Z,22.20
2023-03-08T06:48:16.905Z,20.45
2023-03-08T06:50:43.753Z,21.60
2023-03-08T06:53:10.712Z,22.15
2023-03-08T06:55:38.210Z,21.70
2023-03-08T06:58:05.168Z,20.33
2023-03-08T07:00:31.878Z,18.50
2023-03-08T07:02:58.646Z,17.45
2023-03-08T07:05:25.615Z,17.85
2023-03-08T07:07:52.381Z,17.58
2023-03-08T07:10:20.722Z,17.73
2023-03-08T07:12:50.363Z,16.60
2023-03-08T07:15:22.397Z,18.38
2023-03-08T07:17:50.850Z,20.58
2023-03-08T07:20:19.782Z,19.00
2023-03-08T07:22:46.941Z,26.70
2023-03-08T07:25:18.588Z,24.92
2023-03-08T07:27:45.397Z,24.52
2023-03-08T07:30:14.377Z,26.65
2023-03-08T07:32:44.548Z,25.58
2023-03-08T07:37:38.971Z,23.40
2023-03-08T07:40:06.707Z,24.08
2023-03-08T07:42:33.081Z,21.00
2023-03-08T07:44:59.472Z,21.75
2023-03-08T07:47:25.830Z,21.77
2023-03-08T07:49:52.355Z,21.60
2023-03-08T07:52:18.709Z,20.95
2023-03-08T07:54:45.069Z,21.63
2023-03-08T07:57:15.545Z,21.58
2023-03-08T07:59:42.301Z,20.77
2023-03-08T08:02:14.966Z,20.92
2023-03-08T08:04:41.874Z,20.83
2023-03-08T08:07:12.512Z,20.83
2023-03-08T08:09:39.200Z,21.63
2023-03-08T08:12:06.266Z,22.10
2023-03-08T08:14:32.753Z,21.77
2023-03-08T08:16:59.312Z,23.27
2023-03-08T08:19:25.776Z,26.15
2023-03-08T08:21:52.187Z,25.52
2023-03-08T08:24:18.821Z,27.85
2023-03-08T08:26:45.228Z,26.92
2023-03-08T08:29:11.811Z,25.27
2023-03-08T08:31:38.329Z,27.30
2023-03-08T08:34:04.806Z,25.67
2023-03-08T08:36:31.362Z,26.00
2023-03-08T08:38:57.733Z,24.00
2023-03-08T08:41:24.492Z,26.50
2023-03-08T08:43:51.159Z,28.42
2023-03-08T08:46:18.315Z,28.38
2023-03-08T08:48:44.787Z,27.92
2023-03-08T08:51:13.213Z,26.70
2023-03-08T08:53:40.116Z,30.35
2023-03-08T08:56:25.584Z,33.90
2023-03-08T08:58:53.817Z,35.47
2023-03-08T09:01:23.435Z,33.20
2023-03-08T09:03:50.871Z,32.13
2023-03-08T09:06:19.857Z,30.98
2023-03-08T09:08:52.596Z,29.60
2023-03-08T09:11:19.020Z,30.05
2023-03-08T09:13:45.593Z,29.15
2023-03-08T09:16:26.884Z,29.15
2023-03-08T09:18:56.410Z,28.20
2023-03-08T09:21:23.897Z,29.70
2023-03-08T09:23:51.034Z,29.23
2023-03-08T09:26:18.720Z,30.73
2023-03-08T09:28:45.170Z,29.40
2023-03-08T09:31:17.064Z,29.45
2023-03-08T09:33:46.701Z,28.92
2023-03-08T09:36:13.811Z,29.52
2023-03-08T09:38:41.478Z,30.33
2023-03-08T09:41:26.008Z,28.40
2023-03-08T09:44:21.202Z,28.13
2023-03-08T09:46:59.661Z,28.67
2023-03-08T09:49:29.462Z,31.58
2023-03-08T09:52:11.007Z,29.30
2023-03-08T09:54:39.285Z,30.20
2023-03-08T09:57:12.356Z,29.45
2023-03-08T09:59:58.767Z,32.83
2023-03-08T10:02:52.040Z,28.75
2023-03-08T10:05:43.034Z,27.55
2023-03-08T10:08:15.992Z,29.50
2023-03-08T10:11:00.615Z,26.67
2023-03-08T10:13:31.579Z,28.15
2023-03-08T10:16:33.332Z,27.50
2023-03-08T10:19:25.260Z,28.50
2023-03-08T10:21:52.515Z,26.70
2023-03-08T10:24:26.970Z,27.73
2023-03-08T10:27:06.950Z,27.58
2023-03-08T10:29:33.343Z,26.25
2023-03-08T10:31:59.740Z,25.23
2023-03-08T10:34:31.720Z,24.27
2023-03-08T10:37:00.845Z,23.23
2023-03-08T10:39:27.954Z,22.83
2023-03-08T10:41:57.775Z,22.45
2023-03-08T10:44:42.514Z,24.83
2023-03-08T10:47:27.736Z,23.02
2023-03-08T10:50:16.391Z,22.83
2023-03-08T10:52:44.005Z,21.30
2023-03-08T10:55:19.654Z,22.05
2023-03-08T10:57:59.618Z,20.92
2023-03-08T11:00:42.876Z,19.50
2023-03-08T11:03:15.934Z,19.42
2023-03-08T11:05:58.037Z,19.52
2023-03-08T11:08:28.436Z,19.80
2023-03-08T11:11:24.372Z,18.45
2023-03-08T11:13:52.984Z,18.45
2023-03-08T11:16:45.292Z,17.75
2023-03-08T11:19:26.870Z,17.90
2023-03-08T11:22:03.744Z,17.85
2023-03-08T11:24:35.977Z,17.05
2023-03-08T11:27:15.412Z,17.88
2023-03-08T11:30:01.247Z,19.97
2023-03-08T11:32:46.223Z,19.08
2023-03-08T11:35:25.296Z,17.15
2023-03-08T11:38:06.086Z,16.73
2023-03-08T11:41:11.059Z,16.60
2023-03-08T11:43:59.876Z,15.88
2023-03-08T11:46:45.690Z,16.65
2023-03-08T11:49:43.668Z,18.02
2023-03-08T11:52:33.901Z,15.82
2023-03-08T11:55:22.447Z,18.85
2023-03-08T11:57:57.132Z,18.67
2023-03-08T12:00:46.609Z,16.73
2023-03-08T12:03:26.704Z,14.45
2023-03-08T12:06:00.857Z,15.23
2023-03-08T12:09:05.199Z,15.65
2023-03-08T12:11:44.683Z,15.52
2023-03-08T12:14:16.429Z,14.20
2023-03-08T12:17:04.217Z,16.52
2023-03-08T12:19:41.776Z,16.58
2023-03-08T12:22:28.030Z,16.58
2023-03-08T12:25:33.239Z,14.98
2023-03-08T12:28:05.807Z,15.30
2023-03-08T12:30:32.184Z,15.57
2023-03-08T12:33:02.233Z,15.15
2023-03-08T12:35:34.703Z,13.02
2023-03-08T12:38:01.108Z,12.38
2023-03-08T12:40:47.121Z,12.82
2023-03-08T12:43:20.788Z,12.75
2023-03-08T12:45:59.472Z,12.35
2023-03-08T12:48:47.206Z,12.18
2023-03-08T12:51:14.096Z,12.40
2023-03-08T12:53:49.524Z,12.07
2023-03-08T12:56:52.627Z,12.65
2023-03-08T12:59:18.885Z,11.85
2023-03-08T13:01:47.923Z,11.90
2023-03-08T13:04:41.406Z,12.27
2023-03-08T13:07:14.569Z,12.55
2023-03-08T13:09:40.891Z,11.93
2023-03-08T13:12:23.975Z,12.75
2023-03-08T13:15:11.406Z,11.43
2023-03-08T13:17:41.289Z,13.93
2023-03-08T13:20:42.315Z,15.20
2023-03-08T13:23:25.997Z,14.45
2023-03-08T13:26:20.163Z,15.77
2023-03-08T13:28:48.431Z,14.48
2023-03-08T13:31:22.057Z,15.23
2023-03-08T13:33:53.405Z,15.57
2023-03-08T13:36:25.042Z,14.50
